Time;durP1;ratioP1;P1;durP2;ratioP2;P2;SDS_P1;SDS_P2;PMS_P1;PMS_P2;Temp;Humidity;BMP_temperature;BMP_pressure;BME280_temperature;BME280_humidity;BME280_pressure;Samples;Min_cycle;Max_cycle;Signal;HPM_P1;HPM_P2
2022/05/02 00:02:19;;;;;;;3.88;1.92;;;;;;;7.91;95.21;101942.38;6249997;28;20049;-70
2022/05/02 00:05:21;;;;;;;2.95;1.90;;;;;;;7.85;94.81;101938.13;6250405;28;20064;-70
2022/05/02 00:08:22;;;;;;;3.08;2.10;;;;;;;7.78;95.07;101941.78;6250677;28;20056;-69
2022/05/02 00:11:24;;;;;;;3.55;1.85;;;;;;;7.72;96.15;101933.19;6249582;28;20053;-70
2022/05/02 00:14:25;;;;;;;3.58;1.80;;;;;;;7.70;96.65;101932.38;6250572;28;20052;-70
2022/05/02 00:20:43;;;;;;;2.80;1.90;;;;;;;7.66;97.55;101931.59;6249378;28;20057;-71
2022/05/02 00:23:44;;;;;;;3.13;1.75;;;;;;;7.61;99.07;101933.44;6250046;28;20056;-70
2022/05/02 00:26:46;;;;;;;3.80;2.20;;;;;;;7.58;99.63;101936.13;6249876;28;20508;-70
2022/05/02 00:29:47;;;;;;;2.90;1.90;;;;;;;7.54;100.00;101932.72;6250823;28;20041;-70
2022/05/02 00:32:50;;;;;;;2.20;1.48;;;;;;;7.54;100.00;101929.22;6260739;28;20049;-70
2022/05/02 00:35:51;;;;;;;3.28;1.60;;;;;;;7.57;99.38;101923.94;6274616;28;20049;-70
2022/05/02 00:38:53;;;;;;;2.35;1.73;;;;;;;7.58;100.00;101923.91;6273455;28;20044;-70
2022/05/02 00:41:54;;;;;;;4.97;2.58;;;;;;;7.63;100.00;101913.38;6273484;28;20048;-70
2022/05/02 00:44:55;;;;;;;3.65;1.75;;;;;;;7.68;100.00;101913.25;6274170;28;20519;-70
2022/05/02 00:47:58;;;;;;;2.72;1.63;;;;;;;7.74;100.00;101911.34;6274627;28;20049;-70
2022/05/02 00:51:00;;;;;;;2.25;1.77;;;;;;;7.78;100.00;101906.91;6273426;28;20064;-70
2022/05/02 00:54:02;;;;;;;3.53;2.08;;;;;;;7.83;100.00;101905.06;6274056;28;20052;-70
2022/05/02 00:57:05;;;;;;;3.58;1.95;;;;;;;7.83;100.00;101905.91;6274068;28;20509;-70
2022/05/02 01:00:08;;;;;;;3.65;1.88;;;;;;;7.86;100.00;101899.75;6272103;28;20049;-69
2022/05/02 01:03:12;;;;;;;2.65;1.98;;;;;;;7.86;100.00;101913.69;6272721;28;20045;-70
2022/05/02 01:09:33;;;;;;;2.90;1.90;;;;;;;7.92;100.00;101904.84;6273744;28;20084;-70
2022/05/02 01:12:34;;;;;;;2.90;2.03;;;;;;;7.96;100.00;101906.47;6262810;28;20049;-70
2022/05/02 01:15:35;;;;;;;3.85;2.13;;;;;;;7.93;100.00;101896.06;6263340;28;20049;-70
2022/05/02 01:18:38;;;;;;;3.03;1.92;;;;;;;7.83;100.00;101897.19;6266947;28;20049;-70
2022/05/02 01:21:44;;;;;;;4.30;2.08;;;;;;;7.80;100.00;101894.63;6265543;28;20048;-70
2022/05/02 01:24:47;;;;;;;2.50;1.70;;;;;;;7.84;100.00;101898.91;6253399;28;20045;-70
2022/05/02 01:27:48;;;;;;;8.02;2.45;;;;;;;7.85;100.00;101891.00;6248589;28;20046;-70
2022/05/02 01:30:49;;;;;;;4.07;2.22;;;;;;;7.76;100.00;101888.63;6248784;28;20053;-70
2022/05/02 01:33:52;;;;;;;4.63;2.05;;;;;;;7.68;100.00;101879.25;6248374;28;20045;-70
2022/05/02 01:36:56;;;;;;;4.47;2.17;;;;;;;7.63;100.00;101881.97;6248277;28;20095;-70
2022/05/02 01:39:57;;;;;;;2.67;1.75;;;;;;;7.61;100.00;101876.75;6248182;28;20057;-70
2022/05/02 01:42:58;;;;;;;4.90;2.00;;;;;;;7.57;100.00;101880.34;6247758;28;20494;-70
2022/05/02 01:46:00;;;;;;;4.13;2.20;;;;;;;7.53;100.00;101877.81;6248471;28;20061;-70
2022/05/02 01:49:01;;;;;;;2.22;1.63;;;;;;;7.47;100.00;101872.75;6248109;28;20065;-70
2022/05/02 01:52:05;;;;;;;2.65;1.73;;;;;;;7.36;100.00;101871.22;6247143;28;20046;-70
2022/05/02 01:55:07;;;;;;;2.97;1.83;;;;;;;7.26;100.00;101872.28;6248112;28;20045;-69
2022/05/02 01:58:09;;;;;;;3.63;2.10;;;;;;;7.17;100.00;101874.25;6247724;28;20057;-70
2022/05/02 02:01:10;;;;;;;3.55;1.77;;;;;;;7.10;100.00;101870.91;6259311;28;20056;-70
2022/05/02 02:07:28;;;;;;;3.53;1.70;;;;;;;6.99;100.00;101865.91;6272065;28;20135;-70
2022/05/02 02:10:29;;;;;;;2.50;1.92;;;;;;;6.94;100.00;101866.88;6271565;28;20056;-69
2022/05/02 02:13:31;;;;;;;3.60;2.08;;;;;;;6.88;100.00;101860.03;6272359;28;20044;-70
2022/05/02 02:16:32;;;;;;;4.80;2.00;;;;;;;6.86;100.00;101865.31;6272144;28;20044;-70
2022/05/02 02:19:33;;;;;;;7.43;2.15;;;;;;;6.86;100.00;101862.69;6272260;28;20081;-70
2022/05/02 02:22:36;;;;;;;3.45;1.50;;;;;;;6.84;100.00;101863.59;6271339;28;20538;-70
2022/05/02 02:25:38;;;;;;;3.67;1.80;;;;;;;6.77;100.00;101864.63;6272195;28;20052;-70
2022/05/02 02:28:40;;;;;;;3.60;1.92;;;;;;;6.70;100.00;101863.88;6271961;28;20060;-70
2022/05/02 02:31:41;;;;;;;2.05;1.55;;;;;;;6.72;100.00;101863.81;6257045;28;20055;-70
2022/05/02 02:34:43;;;;;;;3.88;2.10;;;;;;;6.68;100.00;101856.97;6247016;28;20509;-70
2022/05/02 02:37:46;;;;;;;7.18;2.00;;;;;;;6.63;100.00;101864.00;6246866;28;20057;-70
2022/05/02 02:40:47;;;;;;;2.65;2.03;;;;;;;6.59;100.00;101852.78;6246287;28;20049;-70
2022/05/02 02:43:49;;;;;;;2.95;2.10;;;;;;;6.53;100.00;101856.34;6246847;28;20456;-70
2022/05/02 02:46:50;;;;;;;8.98;2.58;;;;;;;6.44;100.00;101856.50;6246929;28;20100;-70
2022/05/02 02:49:51;;;;;;;2.65;1.90;;;;;;;6.43;100.00;101846.97;6246561;28;20054;-70
2022/05/02 02:52:54;;;;;;;4.20;2.03;;;;;;;6.42;100.00;101854.84;6246577;28;20485;-70
2022/05/02 02:55:56;;;;;;;4.55;2.22;;;;;;;6.38;100.00;101847.94;6246683;28;20053;-70
2022/05/02 02:58:57;;;;;;;4.50;1.90;;;;;;;6.37;100.00;101844.47;6247034;28;20099;-70
2022/05/02 03:01:59;;;;;;;3.95;2.00;;;;;;;6.32;100.00;101843.72;6266441;28;20504;-70
2022/05/02 03:08:22;;;;;;;2.70;1.70;;;;;;;6.28;100.00;101840.28;6271096;28;20428;-70
2022/05/02 03:11:23;;;;;;;5.20;2.60;;;;;;;6.26;100.00;101841.19;6270172;28;20056;-70
2022/05/02 03:14:25;;;;;;;4.53;2.15;;;;;;;6.21;100.00;101835.19;6258248;28;20045;-70
2022/05/02 03:17:26;;;;;;;2.78;1.88;;;;;;;6.13;100.00;101840.53;6261933;28;20119;-70
2022/05/02 03:20:27;;;;;;;3.67;2.33;;;;;;;6.07;100.00;101840.66;6245849;28;20053;-70
2022/05/02 03:23:31;;;;;;;2.97;1.88;;;;;;;6.03;100.00;101831.16;6246174;28;20489;-70
2022/05/02 03:26:32;;;;;;;3.58;2.20;;;;;;;6.00;100.00;101832.09;6246496;28;20053;-70
2022/05/02 03:29:33;;;;;;;4.00;1.98;;;;;;;6.01;100.00;101839.00;6261899;28;20492;-69
2022/05/02 03:32:35;;;;;;;2.92;1.92;;;;;;;5.98;100.00;101839.06;6270417;28;20424;-70
2022/05/02 03:35:37;;;;;;;8.13;2.83;;;;;;;5.98;100.00;101830.38;6270676;28;20052;-70
2022/05/02 03:38:39;;;;;;;3.00;2.20;;;;;;;6.02;100.00;101830.28;6271115;28;20052;-70
2022/05/02 03:41:41;;;;;;;4.15;2.63;;;;;;;6.02;100.00;101837.25;6270137;28;20056;-70
2022/05/02 03:44:42;;;;;;;3.28;1.90;;;;;;;5.95;100.00;101836.53;6270716;28;20052;-70
2022/05/02 03:47:43;;;;;;;7.13;2.40;;;;;;;5.89;100.00;101833.97;6271003;28;20492;-70
2022/05/02 03:50:44;;;;;;;5.32;2.28;;;;;;;5.83;100.00;101827.09;6270004;28;20056;-70
2022/05/02 03:53:47;;;;;;;5.47;2.13;;;;;;;5.82;100.00;101837.56;6270697;28;20045;-70
2022/05/02 03:56:48;;;;;;;6.80;2.22;;;;;;;5.83;100.00;101831.47;6270639;28;20052;-70
2022/05/02 03:59:50;;;;;;;5.78;2.70;;;;;;;5.81;100.00;101834.09;6268945;28;20136;-70
2022/05/02 04:02:51;;;;;;;4.35;2.60;;;;;;;5.81;100.00;101835.81;6270125;28;20049;-70
2022/05/02 04:05:53;;;;;;;5.80;3.22;;;;;;;5.82;100.00;101835.81;6270902;28;20049;-70
2022/05/02 04:08:55;;;;;;;5.90;2.90;;;;;;;5.77;100.00;101837.66;6261741;28;20065;-70
2022/05/02 04:11:57;;;;;;;7.05;2.30;;;;;;;5.78;100.00;101834.16;6245185;28;20164;-70
2022/05/02 04:14:58;;;;;;;3.67;2.65;;;;;;;5.75;100.00;101835.94;6248210;28;20054;-70
2022/05/02 04:18:00;;;;;;;7.95;2.67;;;;;;;5.74;100.00;101839.44;6250166;28;20053;-70
2022/05/02 04:21:01;;;;;;;4.45;2.75;;;;;;;5.75;100.00;101834.19;6249702;28;20076;-70
2022/05/02 04:24:05;;;;;;;3.72;2.22;;;;;;;5.78;100.00;101833.28;6249983;28;20054;-70
2022/05/02 04:27:06;;;;;;;4.13;2.08;;;;;;;5.78;100.00;101836.75;6250190;28;20049;-70
2022/05/02 04:30:09;;;;;;;5.85;2.90;;;;;;;5.80;100.00;101831.50;6250420;28;20052;-70
2022/05/02 04:33:12;;;;;;;3.50;2.47;;;;;;;5.82;100.00;101830.59;6249757;28;20049;-70
2022/05/02 04:36:13;;;;;;;4.82;2.83;;;;;;;5.86;100.00;101841.84;6249363;28;20097;-70
2022/05/02 04:39:16;;;;;;;4.13;2.70;;;;;;;5.90;100.00;101834.81;6249945;28;20055;-70
2022/05/02 04:42:18;;;;;;;4.90;3.00;;;;;;;5.99;100.00;101843.38;6249014;28;20053;-70
2022/05/02 04:45:19;;;;;;;3.35;2.28;;;;;;;6.08;100.00;101838.00;6249519;28;20056;-70
2022/05/02 04:48:20;;;;;;;6.63;3.10;;;;;;;6.17;100.00;101844.81;6249658;28;20053;-70
2022/05/02 04:51:22;;;;;;;3.45;2.58;;;;;;;6.18;100.00;101838.72;6248669;28;20045;-70
2022/05/02 04:54:24;;;;;;;7.30;3.40;;;;;;;6.21;100.00;101836.03;6249447;28;20050;-70
2022/05/02 04:57:26;;;;;;;4.47;2.67;;;;;;;6.24;100.00;101833.41;6249192;28;20053;-70
2022/05/02 05:00:27;;;;;;;3.78;2.33;;;;;;;6.36;100.00;101837.53;6249878;28;20049;-70
2022/05/02 05:03:28;;;;;;;3.60;2.17;;;;;;;6.46;100.00;101841.69;6251161;28;20439;-70
2022/05/02 05:06:30;;;;;;;2.55;1.95;;;;;;;6.56;100.00;101837.16;6273714;28;20053;-70
2022/05/02 05:09:32;;;;;;;4.00;2.22;;;;;;;6.64;100.00;101839.63;6265018;28;20520;-70
2022/05/02 05:12:43;;;;;;;4.00;2.38;;;;;;;6.76;100.00;101845.44;6271263;28;20060;-69
2022/05/02 05:16:24;;;;;;;3.83;2.33;;;;;;;6.90;100.00;101849.53;6269174;28;20049;-69
2022/05/02 05:19:57;;;;;;;5.15;2.58;;;;;;;7.03;100.00;101843.19;6248893;28;20091;-70
2022/05/02 05:23:11;;;;;;;3.75;2.30;;;;;;;7.04;100.00;101837.94;6237854;28;20049;-70
2022/05/02 05:26:16;;;;;;;4.80;2.67;;;;;;;7.05;100.00;101833.56;6248162;28;20049;-70
2022/05/02 05:29:33;;;;;;;3.08;2.20;;;;;;;7.12;100.00;101840.38;6248726;28;20541;-70
2022/05/02 05:32:43;;;;;;;3.58;2.60;;;;;;;7.25;100.00;101828.75;6248798;28;20052;-70
2022/05/02 05:35:57;;;;;;;4.07;2.25;;;;;;;7.33;100.00;101837.28;6248132;28;20049;-70
2022/05/02 05:39:04;;;;;;;10.65;2.75;;;;;;;7.32;100.00;101840.81;6264554;28;20540;-70
2022/05/02 05:42:17;;;;;;;4.35;2.60;;;;;;;7.33;100.00;101834.69;6247352;28;20060;-70
2022/05/02 05:45:25;;;;;;;5.20;2.70;;;;;;;7.47;100.00;101834.38;6248037;28;20042;-69
2022/05/02 05:48:43;;;;;;;3.75;2.28;;;;;;;7.64;100.00;101833.97;6248277;28;20045;-70
2022/05/02 05:51:49;;;;;;;4.28;2.33;;;;;;;7.77;100.00;101842.41;6247130;28;20476;-70
2022/05/02 05:55:04;;;;;;;3.65;2.70;;;;;;;7.84;100.00;101836.97;6248033;28;20049;-70
2022/05/02 05:58:16;;;;;;;4.65;2.65;;;;;;;7.98;100.00;101838.38;6248065;28;20056;-70
2022/05/02 06:01:29;;;;;;;3.72;2.03;;;;;;;8.05;100.00;101835.59;6248332;28;20055;-70
2022/05/02 06:04:33;;;;;;;6.90;2.40;;;;;;;8.12;100.00;101844.13;6247937;28;20057;-70
2022/05/02 06:07:35;;;;;;;5.85;2.72;;;;;;;8.17;100.00;101842.25;6247588;28;20045;-70
2022/05/02 06:10:37;;;;;;;4.47;2.40;;;;;;;8.18;100.00;101835.28;6246968;28;20191;-69
2022/05/02 06:13:40;;;;;;;5.65;2.22;;;;;;;8.21;100.00;101835.16;6247407;28;20057;-70
2022/05/02 06:20:05;;;;;;;4.07;2.08;;;;;;;8.26;100.00;101836.75;6247022;28;20049;-69
2022/05/02 06:23:09;;;;;;;5.13;2.40;;;;;;;8.32;100.00;101838.38;6247241;28;20053;-70
2022/05/02 06:26:11;;;;;;;2.28;1.77;;;;;;;8.37;100.00;101839.16;6247574;28;20045;-70
2022/05/02 06:29:14;;;;;;;3.80;2.22;;;;;;;8.43;100.00;101840.75;6247055;28;20056;-69
2022/05/02 06:32:16;;;;;;;4.07;2.28;;;;;;;8.57;100.00;101842.09;6247539;28;20057;-70
2022/05/02 06:35:18;;;;;;;4.45;2.33;;;;;;;8.66;100.00;101837.50;6247059;28;20056;-70
2022/05/02 06:38:32;;;;;;;3.63;2.15;;;;;;;8.78;100.00;101842.41;6246171;28;20049;-70
2022/05/02 06:41:45;;;;;;;3.70;2.20;;;;;;;8.85;100.00;101839.53;6245971;28;20060;-69
2022/05/02 06:44:57;;;;;;;6.57;2.25;;;;;;;8.98;100.00;101840.06;6271341;28;20049;-69
2022/05/02 06:48:25;;;;;;;4.65;2.17;;;;;;;9.08;100.00;101838.91;6271466;28;20500;-69
2022/05/02 06:51:31;;;;;;;3.67;2.45;;;;;;;9.12;100.00;101837.03;6270656;28;20049;-70
2022/05/02 06:54:46;;;;;;;2.55;1.80;;;;;;;9.10;100.00;101836.22;6259228;28;20041;-69
2022/05/02 06:57:58;;;;;;;4.07;2.40;;;;;;;9.10;100.00;101829.22;6258761;28;20397;-69
2022/05/02 07:01:12;;;;;;;2.80;1.95;;;;;;;9.09;100.00;101831.88;6257847;28;20496;-69
2022/05/02 07:04:26;;;;;;;4.38;2.25;;;;;;;9.22;100.00;101841.13;6261368;28;20463;-69
2022/05/02 07:08:03;;;;;;;3.72;2.30;;;;;;;9.29;100.00;101839.16;6267038;28;20052;-69
2022/05/02 07:11:07;;;;;;;2.97;1.80;;;;;;;9.38;100.00;101839.72;6266547;28;20432;-69
2022/05/02 07:14:15;;;;;;;5.55;2.28;;;;;;;9.43;100.00;101839.56;6263482;28;20052;-69
2022/05/02 07:17:25;;;;;;;7.55;2.50;;;;;;;9.49;100.00;101836.75;6270979;28;20048;-69
2022/05/02 07:20:35;;;;;;;3.22;2.08;;;;;;;9.59;100.00;101838.19;6262855;28;20056;-69
2022/05/02 07:23:54;;;;;;;2.50;2.00;;;;;;;9.68;100.00;101836.19;6266620;28;20053;-69
2022/05/02 07:27:04;;;;;;;4.25;1.70;;;;;;;9.79;100.00;101831.44;6269348;28;20041;-70
2022/05/02 07:30:07;;;;;;;2.47;2.08;;;;;;;9.88;100.00;101831.16;6261178;28;20071;-70
2022/05/02 07:33:10;;;;;;;2.13;1.73;;;;;;;9.95;100.00;101837.94;6252296;28;20056;-70
2022/05/02 07:36:17;;;;;;;6.15;2.30;;;;;;;10.00;100.00;101835.16;6267918;28;20045;-70
2022/05/02 07:39:22;;;;;;;4.47;2.28;;;;;;;10.07;100.00;101831.38;6267939;28;20036;-67
2022/05/02 07:42:25;;;;;;;2.53;1.77;;;;;;;10.14;100.00;101833.75;6265126;28;20061;-67
2022/05/02 07:45:28;;;;;;;3.42;2.17;;;;;;;10.19;100.00;101830.97;6270363;28;20393;-70
2022/05/02 07:48:33;;;;;;;2.90;1.80;;;;;;;10.26;100.00;101829.00;6272367;28;20060;-71
2022/05/02 07:51:41;;;;;;;3.63;2.20;;;;;;;10.36;100.00;101830.44;6274917;28;20072;-70
2022/05/02 07:54:43;;;;;;;5.00;2.30;;;;;;;10.43;100.00;101831.06;6273307;28;20037;-70
2022/05/02 07:57:47;;;;;;;3.80;2.17;;;;;;;10.51;100.00;101832.50;6263771;28;20056;-70
2022/05/02 08:00:48;;;;;;;4.35;2.20;;;;;;;10.59;100.00;101835.72;6271248;28;20048;-67
2022/05/02 08:03:52;;;;;;;4.40;2.40;;;;;;;10.67;100.00;101832.81;6275290;28;20068;-70
2022/05/02 08:07:07;;;;;;;3.45;2.05;;;;;;;10.77;100.00;101836.84;6270416;28;20050;-70
2022/05/02 08:10:40;;;;;;;3.97;2.17;;;;;;;10.88;100.00;101841.69;6269259;28;20060;-67
2022/05/02 08:13:54;;;;;;;3.13;2.15;;;;;;;10.99;100.00;101836.00;6273291;28;20064;-70
2022/05/02 08:17:03;;;;;;;5.47;2.40;;;;;;;11.14;100.00;101838.94;6261456;28;20516;-67
2022/05/02 08:20:13;;;;;;;4.85;2.00;;;;;;;11.26;100.00;101837.59;6249976;28;20059;-70
2022/05/02 08:27:19;;;;;;;4.95;2.47;;;;;;;11.43;99.75;101827.28;6268156;28;20042;-70
2022/05/02 08:30:23;;;;;;;4.13;2.35;;;;;;;11.58;100.00;101825.81;6250335;28;20560;-68
2022/05/02 08:33:27;;;;;;;3.72;2.30;;;;;;;11.73;100.00;101834.03;6260527;28;20049;-68
2022/05/02 08:36:34;;;;;;;2.80;1.90;;;;;;;11.90;98.26;101823.69;6272527;28;20056;-70
2022/05/02 08:39:41;;;;;;;6.03;2.85;;;;;;;12.07;96.62;101828.22;6249420;28;20075;-71
2022/05/02 08:43:19;;;;;;;10.48;2.83;;;;;;;12.22;96.87;101821.44;6249229;28;20049;-68
2022/05/02 08:46:56;;;;;;;5.10;2.97;;;;;;;12.42;93.57;101821.44;6269820;28;20465;-68
2022/05/02 08:50:22;;;;;;;4.50;2.05;;;;;;;12.55;92.91;101822.63;6269084;28;20060;-68
2022/05/02 08:54:03;;;;;;;4.18;2.30;;;;;;;12.65;89.92;101817.78;6269751;28;20045;-68
2022/05/02 08:57:27;;;;;;;3.90;2.55;;;;;;;12.78;88.69;101816.31;6267677;28;20049;-68
2022/05/02 09:00:39;;;;;;;3.72;2.28;;;;;;;12.83;88.76;101819.59;6254704;28;20052;-67
2022/05/02 09:04:23;;;;;;;3.20;2.00;;;;;;;12.73;86.85;101810.41;6271626;28;20045;-68
2022/05/02 09:08:02;;;;;;;3.90;2.60;;;;;;;12.64;88.31;101809.03;6271451;28;20048;-68
2022/05/02 09:11:33;;;;;;;6.68;2.75;;;;;;;12.66;91.09;101806.31;6260302;28;20056;-67
2022/05/02 09:15:11;;;;;;;4.93;2.67;;;;;;;12.79;91.11;101802.19;6249860;28;20050;-68
2022/05/02 09:18:35;;;;;;;7.05;3.13;;;;;;;13.04;87.29;101795.81;6252672;28;20562;-68
2022/05/02 09:22:14;;;;;;;3.35;2.25;;;;;;;13.12;83.98;101794.50;6263988;28;20063;-67
2022/05/02 09:25:30;;;;;;;4.33;2.73;;;;;;;13.01;82.75;101790.66;6270656;28;20512;-68
2022/05/02 09:29:03;;;;;;;6.53;2.55;;;;;;;13.06;85.52;101789.50;6256696;28;20710;-68
2022/05/02 09:32:09;;;;;;;4.60;2.53;;;;;;;13.33;84.21;101786.53;6265334;28;20053;-68
2022/05/02 09:35:15;;;;;;;8.48;2.67;;;;;;;13.55;81.66;101776.63;6270389;28;20045;-68
2022/05/02 09:38:24;;;;;;;4.10;2.30;;;;;;;13.68;76.06;101771.59;6270864;28;20044;-69
2022/05/02 09:41:37;;;;;;;;;;;;;;;13.80;78.64;101768.31;6265285;28;20053;-68
2022/05/02 09:52:28;;;;;;;5.05;2.13;;;;;;;14.27;75.40;101754.47;6271958;28;20052;-69
2022/05/02 09:59:22;;;;;;;3.05;1.92;;;;;;;14.70;73.19;101744.25;6272566;28;20057;-71
2022/05/02 10:02:26;;;;;;;5.90;2.10;;;;;;;14.86;66.54;101745.13;6257765;28;20520;-73
2022/05/02 10:05:37;;;;;;;6.45;2.40;;;;;;;14.82;66.97;101748.88;6270748;28;20041;-72
2022/05/02 10:08:50;;;;;;;3.38;2.35;;;;;;;14.64;67.02;101741.94;6271281;28;20072;-71
2022/05/02 10:12:07;;;;;;;7.32;2.20;;;;;;;14.78;70.82;101746.47;6259774;28;20049;-70
2022/05/02 10:15:30;;;;;;;4.18;2.35;;;;;;;14.98;69.21;101728.53;6265326;28;20045;-69
2022/05/02 10:19:10;;;;;;;6.90;2.53;;;;;;;14.90;63.50;101725.50;6251674;28;20057;-68
2022/05/02 10:22:23;;;;;;;7.00;2.30;;;;;;;14.80;62.60;101734.00;6269720;28;20049;-69
2022/05/02 10:25:36;;;;;;;3.47;2.50;;;;;;;14.56;60.18;101728.28;6263923;28;20047;-70
2022/05/02 10:29:00;;;;;;;5.40;3.03;;;;;;;14.38;64.89;101715.06;6261817;28;20118;-69
2022/05/02 10:32:04;;;;;;;6.70;2.53;;;;;;;14.61;65.59;101711.19;6245980;28;20057;-70
2022/05/02 10:35:11;;;;;;;8.50;2.95;;;;;;;14.89;68.22;101712.31;6268785;28;20049;-70
2022/05/02 10:38:19;;;;;;;7.00;2.42;;;;;;;15.07;65.68;101697.19;6270134;28;20060;-69
2022/05/02 10:41:32;;;;;;;5.70;2.67;;;;;;;15.23;66.33;101704.19;6258983;28;20467;-69
2022/05/02 10:44:44;;;;;;;4.72;2.35;;;;;;;15.30;62.72;101690.56;6264791;28;20049;-69
2022/05/02 10:47:51;;;;;;;4.60;2.58;;;;;;;15.41;63.25;101694.31;6265066;28;20052;-69
2022/05/02 10:51:05;;;;;;;3.30;2.28;;;;;;;15.57;62.25;101691.59;6266792;28;20463;-69
2022/05/02 10:54:28;;;;;;;7.53;2.30;;;;;;;15.95;60.56;101688.50;6248585;28;20165;-70
2022/05/02 10:57:32;;;;;;;3.45;2.13;;;;;;;16.18;59.21;101690.59;6252852;28;20052;-69
2022/05/02 11:00:36;;;;;;;3.40;2.30;;;;;;;16.27;56.54;101694.47;6270093;28;20048;-69
2022/05/02 11:03:52;;;;;;;4.55;2.28;;;;;;;16.48;57.84;101686.97;6268755;28;20719;-69
2022/05/02 11:07:07;;;;;;;3.58;2.33;;;;;;;16.69;55.82;101684.75;6269408;28;20049;-69
2022/05/02 11:10:12;;;;;;;4.05;3.03;;;;;;;16.42;52.46;101677.59;6262874;28;20056;-69
2022/05/02 11:13:24;;;;;;;4.30;2.40;;;;;;;16.49;53.70;101680.72;6270927;28;20052;-69
2022/05/02 11:16:27;;;;;;;3.92;2.58;;;;;;;16.47;55.17;101669.34;6246419;28;20493;-70
2022/05/02 11:23:18;;;;;;;4.55;2.65;;;;;;;17.12;52.06;101660.75;6267893;28;20499;-70
2022/05/02 11:26:27;;;;;;;4.18;2.70;;;;;;;17.60;51.20;101661.91;6275593;28;20079;-69
2022/05/02 11:29:40;;;;;;;7.97;2.60;;;;;;;17.71;50.81;101658.50;6267531;28;20091;-70
2022/05/02 11:33:05;;;;;;;10.50;3.03;;;;;;;18.41;47.05;101656.25;6268295;28;20053;-69
2022/05/02 11:36:12;;;;;;;3.95;2.50;;;;;;;19.29;44.48;101650.69;6259485;28;20068;-68
2022/05/02 11:39:21;;;;;;;3.65;2.60;;;;;;;19.50;43.63;101642.88;6253606;28;20053;-69
2022/05/02 11:42:27;;;;;;;6.75;2.67;;;;;;;19.30;43.82;101638.22;6269730;28;20049;-69
2022/05/02 11:45:42;;;;;;;3.80;2.80;;;;;;;19.66;46.34;101635.41;6275242;28;20045;-70
2022/05/02 11:49:13;;;;;;;3.63;2.47;;;;;;;19.38;43.67;101635.81;6275495;28;20041;-72
2022/05/02 11:52:30;;;;;;;4.93;2.40;;;;;;;18.42;46.27;101635.81;6259059;28;20049;-71
2022/05/02 11:55:34;;;;;;;3.35;2.30;;;;;;;17.55;48.15;101633.97;6262152;28;20076;-69
2022/05/02 11:58:43;;;;;;;2.97;2.60;;;;;;;17.15;50.17;101632.19;6272708;28;20507;-69
2022/05/02 12:01:48;;;;;;;;;;;;;;;17.73;48.98;101635.34;6272726;28;20072;-69
2022/05/02 12:04:55;;;;;;;2.05;1.85;;;;;;;18.33;47.03;101628.50;6275274;28;19924;-69
2022/05/02 12:07:59;;;;;;;4.97;2.92;;;;;;;17.84;47.19;101631.97;6275333;28;20049;-70
2022/05/02 12:11:06;;;;;;;3.55;2.58;;;;;;;17.47;48.08;101634.47;6274590;28;20044;-70
2022/05/02 12:14:18;;;;;;;3.55;2.30;;;;;;;17.73;50.95;101628.25;6250177;28;20398;-70
2022/05/02 12:17:20;;;;;;;5.53;2.70;;;;;;;18.60;47.33;101625.66;6250447;28;20053;-71
2022/05/02 12:20:29;;;;;;;3.65;2.58;;;;;;;18.58;48.26;101622.25;6249573;28;20049;-69
2022/05/02 12:23:34;;;;;;;4.03;2.60;;;;;;;18.11;47.78;101616.72;6252296;28;20042;-69
2022/05/02 12:26:45;;;;;;;5.47;2.17;;;;;;;18.74;46.57;101620.19;6273782;28;20067;-69
2022/05/02 12:29:57;;;;;;;5.55;2.88;;;;;;;18.34;46.93;101611.56;6271828;28;20436;-70
2022/05/02 12:33:04;;;;;;;4.03;2.58;;;;;;;18.60;47.07;101613.19;6256587;28;20045;-70
2022/05/02 12:36:14;;;;;;;3.80;2.63;;;;;;;20.16;44.86;101608.41;6273209;28;20053;-70
2022/05/02 12:39:19;;;;;;;2.83;2.28;;;;;;;21.69;39.18;101601.03;6274654;28;20053;-70
2022/05/02 12:42:28;;;;;;;4.03;2.35;;;;;;;21.43;40.75;101596.09;6273608;28;20060;-70
2022/05/02 12:45:45;;;;;;;3.72;2.50;;;;;;;20.14;40.23;101599.69;6274495;28;20060;-69
2022/05/02 12:48:56;;;;;;;5.65;2.53;;;;;;;20.77;39.33;101590.09;6273480;28;20056;-70
2022/05/02 12:51:58;;;;;;;3.58;2.70;;;;;;;22.75;36.58;101590.63;6272787;28;20160;-70
2022/05/02 12:54:59;;;;;;;3.90;2.58;;;;;;;22.89;35.26;101585.84;6268761;28;20056;-70
2022/05/02 13:01:24;;;;;;;5.32;2.67;;;;;;;21.44;36.91;101575.56;6258302;28;20049;-71
2022/05/02 13:04:26;;;;;;;3.22;2.22;;;;;;;20.32;40.01;101578.66;6273734;28;20052;-71
2022/05/02 13:07:27;;;;;;;4.40;2.50;;;;;;;19.63;41.00;101573.50;6273862;28;20048;-73
2022/05/02 13:10:30;;;;;;;3.67;2.60;;;;;;;21.73;37.00;101571.19;6263560;28;20060;-71
2022/05/02 13:13:45;;;;;;;3.13;2.50;;;;;;;23.21;33.47;101567.66;6248939;28;20076;-71
2022/05/02 13:16:48;;;;;;;3.03;2.30;;;;;;;21.72;38.51;101566.00;6248212;28;20467;-68
2022/05/02 13:19:50;;;;;;;2.80;2.03;;;;;;;20.82;40.11;101563.84;6247938;28;20053;-68
2022/05/02 13:22:58;;;;;;;4.53;2.47;;;;;;;22.36;38.02;101562.13;6248476;28;20046;-71
2022/05/02 13:26:10;;;;;;;7.10;2.20;;;;;;;20.94;39.35;101559.31;6247597;28;20428;-70
2022/05/02 13:29:26;;;;;;;4.50;2.97;;;;;;;19.65;42.78;101555.53;6250137;28;20280;-69
2022/05/02 13:32:32;;;;;;;3.88;2.13;;;;;;;22.05;38.75;101548.78;6254551;28;20075;-70
2022/05/02 13:35:36;;;;;;;2.38;2.08;;;;;;;25.10;33.06;101546.53;6263882;28;20056;-71
2022/05/02 13:38:44;;;;;;;3.72;2.00;;;;;;;25.19;30.52;101540.22;6248279;28;20412;-71
2022/05/02 13:41:49;;;;;;;2.88;2.20;;;;;;;25.54;30.48;101539.25;6247534;28;20049;-71
2022/05/02 13:44:57;;;;;;;3.13;2.17;;;;;;;24.36;31.77;101543.16;6248222;28;20050;-71
2022/05/02 13:48:13;;;;;;;4.32;2.60;;;;;;;24.32;32.47;101539.06;6253873;28;20183;-71
2022/05/02 13:51:27;;;;;;;6.43;2.22;;;;;;;25.09;30.95;101529.56;6272150;28;20052;-71
2022/05/02 13:54:34;;;;;;;3.75;2.58;;;;;;;23.68;32.22;101537.31;6271439;28;20175;-70
2022/05/02 13:57:42;;;;;;;3.92;2.75;;;;;;;22.47;34.50;101527.16;6269886;28;20599;-71
2022/05/02 14:04:24;;;;;;;2.88;2.20;;;;;;;22.36;35.50;101528.16;6272365;28;20053;-71
2022/05/02 14:07:27;;;;;;;2.97;2.00;;;;;;;21.59;37.22;101520.72;6271405;28;20146;-71
2022/05/02 14:10:29;;;;;;;5.22;2.30;;;;;;;20.83;38.40;101522.78;6269283;28;20060;-70
2022/05/02 14:13:31;;;;;;;5.07;2.78;;;;;;;21.56;39.41;101518.31;6270656;28;20052;-71
2022/05/02 14:16:35;;;;;;;3.13;2.15;;;;;;;21.92;37.23;101521.41;6247308;28;20041;-71
2022/05/02 14:19:37;;;;;;;6.68;2.40;;;;;;;21.15;38.58;101520.03;6266939;28;20441;-72
2022/05/02 14:22:38;;;;;;;5.13;2.92;;;;;;;19.86;41.30;101523.66;6246768;28;20489;-71
2022/05/02 14:25:41;;;;;;;3.20;2.30;;;;;;;19.47;42.54;101523.16;6252876;28;20056;-71
2022/05/02 14:28:47;;;;;;;2.97;2.08;;;;;;;18.65;44.51;101520.50;6260621;28;20053;-71
2022/05/02 14:32:02;;;;;;;4.75;2.55;;;;;;;18.47;45.52;101520.06;6270570;28;20080;-71
2022/05/02 14:35:03;;;;;;;3.70;1.95;;;;;;;18.40;47.49;101518.00;6271959;28;20420;-71
2022/05/02 14:38:06;;;;;;;7.85;2.42;;;;;;;18.17;47.50;101501.91;6271804;28;20049;-71
2022/05/02 14:41:09;;;;;;;5.22;2.53;;;;;;;18.18;46.88;101510.72;6271065;28;20214;-71
2022/05/02 14:44:12;;;;;;;4.90;2.72;;;;;;;18.54;45.71;101507.16;6256391;28;20061;-71
2022/05/02 14:47:17;;;;;;;4.43;3.17;;;;;;;18.56;46.31;101513.22;6247388;28;20050;-71
2022/05/02 14:50:20;;;;;;;5.50;2.30;;;;;;;18.48;49.62;101504.94;6246293;28;20057;-70
2022/05/02 14:53:26;;;;;;;3.53;2.25;;;;;;;18.31;46.46;101508.88;6247002;28;20045;-71
2022/05/02 14:56:30;;;;;;;3.38;2.67;;;;;;;18.42;46.22;101508.06;6246650;28;20049;-73
2022/05/02 14:59:35;;;;;;;4.15;2.47;;;;;;;18.07;46.71;101507.97;6254008;28;20420;-73
2022/05/02 15:02:39;;;;;;;2.92;1.77;;;;;;;17.90;49.48;101499.44;6270246;28;20516;-69
2022/05/02 15:05:42;;;;;;;2.55;2.10;;;;;;;18.00;47.83;101492.47;6271470;28;20060;-69
2022/05/02 15:09:03;;;;;;;6.15;3.15;;;;;;;18.18;46.65;101498.28;6271228;28;20507;-69
2022/05/02 15:12:12;;;;;;;3.42;2.42;;;;;;;18.04;46.96;101493.13;6270672;28;20060;-69
2022/05/02 15:15:44;;;;;;;3.47;2.22;;;;;;;17.82;47.28;101504.44;6271223;28;20048;-69
2022/05/02 15:22:38;;;;;;;;;;;;;;;17.97;48.13;101483.88;6270967;28;20053;-69